Bettendorf, IA (52722)

6:04 PM CST on January 20, 2017 (GMT -0600)
E. Bettendorf | | Change Station
Active Advisory: Dense Fog Advisory

Elev 623 ft 41.55 °N, 90.49 °W | Updated 34 seconds ago

Overcast
Overcast
43.2 °F
Feels Like 43 °F
N
0.0
Wind Variable Wind from South

Today
High -- | Low -- °F
--% Chance of Precip.
Yesterday
High -- | Low -- °F
Precip. -- in
Pressure 29.60 in
Visibility 5.0 miles
Clouds Overcast 400 ft
Windchill 43 °F
Dew Point 42 °F
Humidity 98%
Rainfall 0.02 in
Snow Depth Not available.
7:23 AM 5:03 PM
Last Quarter, 40% visible
METAR KMLI 202352Z 10005KT 5SM BR OVC004 07/05 A2959 RMK AO2 SLP023 T00670050 10078 20056 55000
Pressure 29.60 in
Visibility 5.0 miles
Clouds Overcast 400 ft
Windchill 43 °F
Dew Point 42 °F
Humidity 98%
Rainfall 0.02 in
Snow Depth Not available.
7:23 AM 5:03 PM
Last Quarter, 40% visible
METAR KMLI 202352Z 10005KT 5SM BR OVC004 07/05 A2959 RMK AO2 SLP023 T00670050 10078 20056 55000

Get Your Daily Forecast Email!

Thanks for signing up!

Be on the lookout for a verification email in your inbox.

You'll start receiving the daily forecast at 8 AM.

×

10-Day Weather Forecast

Almanac

Astronomy

Jan. 20, 2017 Rise Set
Actual Time
Civil Twilight
Nautical Twilight
Astronomical Twilight
Moon
Length of Visible Light
Length of Day
Tomorrow will be .
, % of the Moon is Illuminated

Today's Extremes

State Highs State Lows

Community

WunderPhotos

Upload Photos

1,962,540 photos uploaded!

WunderBlog® & News

Nearby

Air Quality

  Air Quality AQ Index Pollutant
Not available.

Snow Depth

Station Depth Elevation

Earthquake Activity

City Distance Mag. Time & Date
Minimum magnitude displayed is 2.5.

Coastal Water Temperatures

Place Temperature

Stations

Nearby Weather Stations

Station Location Temp. Windchill Dew Point Humidity Wind Precip. Elev Updated Type
                   

Watches & Warnings

Dense Fog Advisory
Issued: 3:14 PM CST Jan. 20, 2017 – National Weather Service

... Dense fog advisory in effect from 6 PM this evening to 10 am
CST Saturday...

The National Weather Service in Quad Cities has issued a dense
fog advisory... which is in effect from 6 PM this evening to 10 am
CST Saturday.

* Timing... through mid-morning Saturday. Areas near and east of
the Mississippi River may not see widespread dense fog until
after 8 PM. Overnight into Saturday morning the dense fog is
expected to lift and visibilities improve from south to north.

* Visibility... less than 1/4 mile at times.

* Impacts... driving will be hazardous due to severely reduced
visibility at times.

Precautionary/preparedness actions...

A dense fog advisory means visibilities will frequently be
reduced to less than one quarter mile. If driving, slow down, use
your headlights, and leave plenty of distance ahead of you.



05/12